createdAt,value
2023-04-22T00:00:03.202Z,93.62
2023-04-22T00:01:02.812Z,93.62
2023-04-22T00:02:03.192Z,94.02
2023-04-22T00:03:03.015Z,94.54
2023-04-22T00:04:03.412Z,94.99
2023-04-22T00:05:02.898Z,95.09
2023-04-22T00:06:02.986Z,95.20
2023-04-22T00:07:03.406Z,95.40
2023-04-22T00:08:03.146Z,95.91
2023-04-22T00:09:03.539Z,96.42
2023-04-22T00:10:03.070Z,96.63
2023-04-22T00:11:03.263Z,96.73
2023-04-22T00:12:02.698Z,96.88
2023-04-22T00:13:02.297Z,97.29
2023-04-22T00:14:02.292Z,97.49
2023-04-22T00:15:02.698Z,97.49
2023-04-22T00:16:02.440Z,98.00
2023-04-22T00:17:03.445Z,98.00
2023-04-22T00:18:02.976Z,98.32
2023-04-22T00:19:03.441Z,98.42
2023-04-22T00:20:02.866Z,98.32
2023-04-22T00:21:03.157Z,97.75
2023-04-22T00:22:02.524Z,97.96
2023-04-22T00:23:02.178Z,97.24
2023-04-22T00:24:02.583Z,96.94
2023-04-22T00:25:02.018Z,96.83
2023-04-22T00:26:02.440Z,96.32
2023-04-22T00:27:02.895Z,95.70
2023-04-22T00:28:02.601Z,96.12
2023-04-22T00:29:02.380Z,97.04
2023-04-22T00:30:02.743Z,97.14
2023-04-22T00:31:02.394Z,97.55
2023-04-22T00:32:03.461Z,96.94
2023-04-22T00:33:02.964Z,95.87
2023-04-22T00:34:03.411Z,94.95
2023-04-22T00:35:02.988Z,94.43
2023-04-22T00:36:03.390Z,95.76
2023-04-22T00:37:02.584Z,96.38
2023-04-22T00:38:02.317Z,96.58
2023-04-22T00:39:02.077Z,97.09
2023-04-22T00:40:02.505Z,96.79
2023-04-22T00:41:02.050Z,96.89
2023-04-22T00:42:02.782Z,96.69
2023-04-22T00:43:02.505Z,96.07
2023-04-22T00:44:02.929Z,94.74
2023-04-22T00:45:02.678Z,94.29
2023-04-22T00:46:02.993Z,95.46
2023-04-22T00:47:03.327Z,95.76
2023-04-22T00:48:03.088Z,95.56
2023-04-22T00:49:03.090Z,95.25
2023-04-22T00:50:02.763Z,96.07
2023-04-22T00:51:03.091Z,96.28
2023-04-22T00:52:03.468Z,97.04
2023-04-22T00:53:02.959Z,97.55
2023-04-22T00:54:03.438Z,98.07
2023-04-22T00:55:02.921Z,97.50
2023-04-22T00:56:03.016Z,97.71
2023-04-22T00:57:02.806Z,97.09
2023-04-22T00:58:02.606Z,97.81
2023-04-22T00:59:02.976Z,98.12
2023-04-22T01:00:02.757Z,97.71
2023-04-22T01:01:02.587Z,97.71
2023-04-22T01:02:02.772Z,97.71
2023-04-22T01:03:02.746Z,97.71
2023-04-22T01:04:02.229Z,98.33
2023-04-22T01:05:02.700Z,98.83
2023-04-22T01:06:02.278Z,97.61
2023-04-22T01:07:01.814Z,98.12
2023-04-22T01:08:01.872Z,97.50
2023-04-22T01:09:02.205Z,97.61
2023-04-22T01:10:01.604Z,98.33
2023-04-22T01:11:02.011Z,98.53
2023-04-22T01:12:02.407Z,98.83
2023-04-22T01:13:02.708Z,98.63
2023-04-22T01:14:02.433Z,98.58
2023-04-22T01:15:04.693Z,98.28
2023-04-22T01:16:02.828Z,97.97
2023-04-22T01:17:02.058Z,97.36
2023-04-22T01:18:02.295Z,98.18
2023-04-22T01:19:02.046Z,98.38
2023-04-22T01:20:01.865Z,98.07
2023-04-22T01:21:02.291Z,97.05
2023-04-22T01:22:02.862Z,97.15
2023-04-22T01:23:03.198Z,96.80
2023-04-22T01:24:02.630Z,97.15
2023-04-22T01:25:02.980Z,97.46
2023-04-22T01:26:02.893Z,97.25
2023-04-22T01:27:02.343Z,97.36
2023-04-22T01:28:02.193Z,97.87
2023-04-22T01:29:02.648Z,97.46
2023-04-22T01:30:02.366Z,97.11
2023-04-22T01:31:02.256Z,97.56
2023-04-22T01:32:02.535Z,98.58
2023-04-22T01:33:02.866Z,98.18
2023-04-22T01:34:02.435Z,97.97
2023-04-22T01:35:02.539Z,98.18
2023-04-22T01:36:02.968Z,97.66
2023-04-22T01:37:02.395Z,97.77
2023-04-22T01:38:02.178Z,98.38
2023-04-22T01:39:02.367Z,98.69
2023-04-22T01:40:02.087Z,98.69
2023-04-22T01:41:02.580Z,98.90
2023-04-22T01:42:02.083Z,98.65
2023-04-22T01:43:01.946Z,98.54
2023-04-22T01:44:02.245Z,98.74
2023-04-22T01:45:01.976Z,98.65
2023-04-22T01:46:02.012Z,98.03
2023-04-22T01:47:02.603Z,98.19
2023-04-22T01:48:02.352Z,97.98
2023-04-22T01:49:02.265Z,97.37
2023-04-22T01:50:02.150Z,96.96
2023-04-22T01:51:02.571Z,97.06
2023-04-22T01:52:02.237Z,97.16
2023-04-22T01:53:01.936Z,97.27
2023-04-22T01:54:02.168Z,97.16
2023-04-22T01:55:01.824Z,97.27
2023-04-22T01:56:01.680Z,97.16
2023-04-22T01:57:02.215Z,97.37
2023-04-22T01:58:01.699Z,97.37
2023-04-22T01:59:01.927Z,97.22
2023-04-22T02:00:01.644Z,97.22
2023-04-22T02:01:02.275Z,97.12
2023-04-22T02:02:03.233Z,96.61
2023-04-22T02:03:03.365Z,96.30
2023-04-22T02:04:03.038Z,95.59
2023-04-22T02:05:03.473Z,95.59
2023-04-22T02:06:03.248Z,95.59
2023-04-22T02:07:03.684Z,95.89
2023-04-22T02:08:03.589Z,95.95
2023-04-22T02:09:03.331Z,96.05
2023-04-22T02:10:03.895Z,95.89
2023-04-22T02:11:03.444Z,96.10
2023-04-22T02:12:03.048Z,96.71
2023-04-22T02:13:02.843Z,96.30
2023-04-22T02:14:02.655Z,96.51
2023-04-22T02:15:03.135Z,96.46
2023-04-22T02:16:02.702Z,96.36
2023-04-22T02:17:03.246Z,96.36
2023-04-22T02:18:03.081Z,96.05
2023-04-22T02:19:02.801Z,95.75
2023-04-22T02:20:02.844Z,95.34
2023-04-22T02:21:02.982Z,95.85
2023-04-22T02:22:03.467Z,95.75
2023-04-22T02:23:03.322Z,95.85
2023-04-22T02:24:03.166Z,95.75
2023-04-22T02:25:03.632Z,95.54
2023-04-22T02:26:03.241Z,95.64
2023-04-22T02:27:03.537Z,95.23
2023-04-22T02:28:03.423Z,94.93
2023-04-22T02:29:03.979Z,94.78
2023-04-22T02:30:03.672Z,94.82
2023-04-22T02:31:03.505Z,94.17
2023-04-22T02:32:03.060Z,94.07
2023-04-22T02:33:02.899Z,94.27
2023-04-22T02:34:02.634Z,93.96
2023-04-22T02:35:03.046Z,93.76
2023-04-22T02:36:02.799Z,93.25
2023-04-22T02:37:03.245Z,93.05
2023-04-22T02:38:03.011Z,93.55
2023-04-22T02:39:02.825Z,94.37
2023-04-22T02:40:02.677Z,95.34
2023-04-22T02:41:03.104Z,95.54
2023-04-22T02:42:03.594Z,96.05
2023-04-22T02:43:03.561Z,95.44
2023-04-22T02:44:03.457Z,95.34
2023-04-22T02:45:03.316Z,95.64
2023-04-22T02:46:03.151Z,95.64
2023-04-22T02:47:03.285Z,95.39
2023-04-22T02:48:02.927Z,95.29
2023-04-22T02:49:03.050Z,95.29
2023-04-22T02:50:03.058Z,95.50
2023-04-22T02:51:02.876Z,94.89
2023-04-22T02:52:03.349Z,95.19
2023-04-22T02:53:02.888Z,95.50
2023-04-22T02:54:03.134Z,95.39
2023-04-22T02:55:02.925Z,95.60
2023-04-22T02:56:02.759Z,95.29
2023-04-22T02:57:03.799Z,95.19
2023-04-22T02:58:03.269Z,95.29
2023-04-22T02:59:03.687Z,95.29
2023-04-22T03:00:03.795Z,95.39
2023-04-22T03:01:03.847Z,95.09
2023-04-22T03:02:03.859Z,95.19
2023-04-22T03:03:03.000Z,95.19
2023-04-22T03:04:03.050Z,95.39
2023-04-22T03:05:02.615Z,95.50
2023-04-22T03:06:02.628Z,95.75
2023-04-22T03:07:02.272Z,96.05
2023-04-22T03:08:02.407Z,96.15
2023-04-22T03:09:02.600Z,96.15
2023-04-22T03:10:02.423Z,96.05
2023-04-22T03:11:02.470Z,95.85
2023-04-22T03:12:02.788Z,95.85
2023-04-22T03:13:02.592Z,95.95
2023-04-22T03:14:02.383Z,96.26
2023-04-22T03:15:02.596Z,96.15
2023-04-22T03:16:02.619Z,96.26
2023-04-22T03:17:02.657Z,96.46
2023-04-22T03:18:02.890Z,96.46
2023-04-22T03:19:02.600Z,96.56
2023-04-22T03:20:02.392Z,96.21
2023-04-22T03:21:02.263Z,95.80
2023-04-22T03:22:01.782Z,95.70
2023-04-22T03:23:02.277Z,94.98
2023-04-22T03:24:02.037Z,94.58
2023-04-22T03:25:01.895Z,95.29
2023-04-22T03:26:01.723Z,95.29
2023-04-22T03:27:02.185Z,95.80
2023-04-22T03:28:02.353Z,95.60
2023-04-22T03:29:02.684Z,95.39
2023-04-22T03:30:02.186Z,95.29
2023-04-22T03:31:02.656Z,95.09
2023-04-22T03:32:02.008Z,95.13
2023-04-22T03:33:02.488Z,95.34
2023-04-22T03:34:01.990Z,95.54
2023-04-22T03:35:01.859Z,95.34
2023-04-22T03:36:02.191Z,95.54
2023-04-22T03:37:01.918Z,95.44
2023-04-22T03:38:02.325Z,95.64
2023-04-22T03:39:01.827Z,95.85
2023-04-22T03:40:02.071Z,95.75
2023-04-22T03:41:01.873Z,96.05
2023-04-22T03:42:02.271Z,95.85
2023-04-22T03:43:02.524Z,95.85
2023-04-22T03:44:02.488Z,96.26
2023-04-22T03:45:02.789Z,96.20
2023-04-22T03:46:02.337Z,96.00
2023-04-22T03:47:02.044Z,96.20
2023-04-22T03:48:01.715Z,96.41
2023-04-22T03:49:02.176Z,96.30
2023-04-22T03:50:01.865Z,96.51
2023-04-22T03:51:02.341Z,96.41
2023-04-22T03:52:02.468Z,96.41
2023-04-22T03:53:02.486Z,96.15
2023-04-22T03:54:02.398Z,96.20
2023-04-22T03:55:02.514Z,96.36
2023-04-22T03:56:02.502Z,96.05
2023-04-22T03:57:02.061Z,96.05
2023-04-22T03:58:02.382Z,95.75
2023-04-22T03:59:01.905Z,95.44
2023-04-22T04:00:02.141Z,95.75
2023-04-22T04:01:02.195Z,96.05
2023-04-22T04:02:02.764Z,96.05
2023-04-22T04:03:02.814Z,95.95
2023-04-22T04:04:02.900Z,95.75
2023-04-22T04:05:02.882Z,95.03
2023-04-22T04:06:02.588Z,94.11
2023-04-22T04:07:03.082Z,94.73
2023-04-22T04:08:02.875Z,94.73
2023-04-22T04:09:02.798Z,94.89
2023-04-22T04:10:02.629Z,94.68
2023-04-22T04:11:03.113Z,94.89
2023-04-22T04:12:02.683Z,95.09
2023-04-22T04:13:02.721Z,95.09
2023-04-22T04:14:03.281Z,94.89
2023-04-22T04:15:02.985Z,94.89
2023-04-22T04:16:03.038Z,94.78
2023-04-22T04:17:02.583Z,95.03
2023-04-22T04:18:02.528Z,95.13
2023-04-22T04:19:02.403Z,95.23
2023-04-22T04:20:02.318Z,95.54
2023-04-22T04:21:02.175Z,95.09
2023-04-22T04:22:02.850Z,94.98
2023-04-22T04:23:02.691Z,94.89
2023-04-22T04:24:02.514Z,94.98
2023-04-22T04:25:02.839Z,94.98
2023-04-22T04:26:02.591Z,95.09
2023-04-22T04:27:03.171Z,94.89
2023-04-22T04:28:03.460Z,94.89
2023-04-22T04:29:03.372Z,94.98
2023-04-22T04:30:03.136Z,94.78
2023-04-22T04:31:03.129Z,94.73
2023-04-22T04:32:02.950Z,94.73
2023-04-22T04:33:02.919Z,94.89
2023-04-22T04:34:03.014Z,94.58
2023-04-22T04:35:02.693Z,94.58
2023-04-22T04:36:02.955Z,94.48
2023-04-22T04:37:01.939Z,94.48
2023-04-22T04:38:02.503Z,94.48
2023-04-22T04:39:02.216Z,94.68
2023-04-22T04:40:02.131Z,94.37
2023-04-22T04:41:02.051Z,94.27
2023-04-22T04:42:02.725Z,94.48
2023-04-22T04:43:02.745Z,94.68
2023-04-22T04:44:02.459Z,94.68
2023-04-22T04:45:02.515Z,94.78
2023-04-22T04:46:02.381Z,94.37
2023-04-22T04:47:03.171Z,94.17
2023-04-22T04:48:02.960Z,94.17
2023-04-22T04:49:02.617Z,94.17
2023-04-22T04:50:02.549Z,94.07
2023-04-22T04:51:03.175Z,94.12
2023-04-22T04:52:02.577Z,93.92
2023-04-22T04:53:01.975Z,93.71
2023-04-22T04:54:02.590Z,93.62
2023-04-22T04:55:01.986Z,93.82
2023-04-22T04:56:02.630Z,94.02
2023-04-22T04:57:02.909Z,93.71
2023-04-22T04:58:02.398Z,93.82
2023-04-22T04:59:02.931Z,93.51
2023-04-22T05:00:02.672Z,93.41
2023-04-22T05:01:02.896Z,93.82
2023-04-22T05:02:02.773Z,93.51
2023-04-22T05:03:02.620Z,94.12
2023-04-22T05:04:02.714Z,94.53
2023-04-22T05:05:02.473Z,94.74
2023-04-22T05:06:02.526Z,94.12
2023-04-22T05:07:03.081Z,93.51
2023-04-22T05:08:03.002Z,93.62
2023-04-22T05:09:02.910Z,94.02
2023-04-22T05:10:02.782Z,93.92
2023-04-22T05:11:02.960Z,93.82
2023-04-22T05:12:03.466Z,92.96
2023-04-22T05:13:04.267Z,93.06
2023-04-22T05:14:03.009Z,93.37
2023-04-22T05:15:02.935Z,93.26
2023-04-22T05:16:03.546Z,93.16
2023-04-22T05:17:02.989Z,93.37
2023-04-22T05:18:02.502Z,93.06
2023-04-22T05:19:02.467Z,93.47
2023-04-22T05:20:02.394Z,93.98
2023-04-22T05:21:02.990Z,93.88
2023-04-22T05:22:02.024Z,93.77
2023-04-22T05:23:02.305Z,94.29
2023-04-22T05:24:02.254Z,94.49
2023-04-22T05:25:02.298Z,94.29
2023-04-22T05:26:02.263Z,93.47
2023-04-22T05:27:02.137Z,93.02
2023-04-22T05:28:02.744Z,93.12
2023-04-22T05:29:02.489Z,92.20
2023-04-22T05:30:02.404Z,92.30
2023-04-22T05:31:02.249Z,92.91
2023-04-22T05:32:02.284Z,93.32
2023-04-22T05:33:02.393Z,93.52
2023-04-22T05:34:02.202Z,92.71
2023-04-22T05:35:02.710Z,92.61
2023-04-22T05:36:02.350Z,92.91
2023-04-22T05:37:02.227Z,92.36
2023-04-22T05:38:02.387Z,92.46
2023-04-22T05:39:02.386Z,93.07
2023-04-22T05:40:02.188Z,93.48
2023-04-22T05:41:02.184Z,93.48
2023-04-22T05:42:02.855Z,93.18
2023-04-22T05:43:02.800Z,93.54
2023-04-22T05:44:03.056Z,93.24
2023-04-22T05:45:02.960Z,92.83
2023-04-22T05:46:03.012Z,92.11
2023-04-22T05:47:02.252Z,91.97
2023-04-22T05:48:02.198Z,91.87
2023-04-22T05:49:02.134Z,91.87
2023-04-22T05:50:01.973Z,92.18
2023-04-22T05:51:02.576Z,92.79
2023-04-22T05:52:02.391Z,92.44
2023-04-22T05:53:02.511Z,92.33
2023-04-22T05:54:02.424Z,92.23
2023-04-22T05:55:02.575Z,92.03
2023-04-22T05:56:02.516Z,92.09
2023-04-22T05:57:02.454Z,92.19
2023-04-22T05:58:02.950Z,91.78
2023-04-22T05:59:02.705Z,91.74
2023-04-22T06:00:02.723Z,91.53
2023-04-22T06:01:02.687Z,91.19
2023-04-22T06:02:01.786Z,91.09
2023-04-22T06:03:01.951Z,90.68
2023-04-22T06:04:01.847Z,90.44
2023-04-22T06:05:02.267Z,89.83
2023-04-22T06:06:02.359Z,89.62
2023-04-22T06:07:02.006Z,87.95
2023-04-22T06:08:01.848Z,88.06
2023-04-22T06:09:02.395Z,87.85
2023-04-22T06:10:04.600Z,88.16
2023-04-22T06:11:02.245Z,88.36
2023-04-22T06:12:02.260Z,88.06
2023-04-22T06:13:02.644Z,87.71
2023-04-22T06:14:02.313Z,87.10
2023-04-22T06:15:02.181Z,86.49
2023-04-22T06:16:02.633Z,85.58
2023-04-22T06:17:02.574Z,85.47
2023-04-22T06:18:02.586Z,85.58
2023-04-22T06:19:02.593Z,85.98
2023-04-22T06:20:02.367Z,86.29
2023-04-22T06:21:02.279Z,85.47
2023-04-22T06:22:02.006Z,86.19
2023-04-22T06:23:02.035Z,86.49
2023-04-22T06:24:02.430Z,85.07
2023-04-22T06:25:02.245Z,85.17
2023-04-22T06:26:02.058Z,85.27
2023-04-22T06:27:01.984Z,85.68
2023-04-22T06:28:01.994Z,85.88
2023-04-22T06:29:02.061Z,86.08
2023-04-22T06:30:01.973Z,86.08
2023-04-22T06:31:02.001Z,84.97
2023-04-22T06:32:02.616Z,85.38
2023-04-22T06:33:02.565Z,84.97
2023-04-22T06:34:02.434Z,84.36
2023-04-22T06:35:03.027Z,84.87
2023-04-22T06:36:02.726Z,84.46
2023-04-22T06:37:02.664Z,84.52
2023-04-22T06:38:02.902Z,84.42
2023-04-22T06:39:02.773Z,84.52
2023-04-22T06:40:02.623Z,84.52
2023-04-22T06:41:02.786Z,84.22
2023-04-22T06:42:01.899Z,84.12
2023-04-22T06:43:01.759Z,84.52
2023-04-22T06:44:01.505Z,83.87
2023-04-22T06:45:02.102Z,82.96
2023-04-22T06:46:01.854Z,83.98
2023-04-22T06:47:02.404Z,84.48
2023-04-22T06:48:02.676Z,84.28
2023-04-22T06:49:02.816Z,83.37
2023-04-22T06:50:02.537Z,83.47
2023-04-22T06:51:02.816Z,83.77
2023-04-22T06:52:01.955Z,83.43
2023-04-22T06:53:01.916Z,83.53
2023-04-22T06:54:01.849Z,84.14
2023-04-22T06:55:01.800Z,84.20
2023-04-22T06:56:01.778Z,84.61
2023-04-22T06:57:02.403Z,84.91
2023-04-22T06:58:02.379Z,83.25
2023-04-22T06:59:02.548Z,81.63
2023-04-22T07:00:02.564Z,82.40
2023-04-22T07:01:02.350Z,82.30
2023-04-22T07:02:03.108Z,80.84
2023-04-22T07:03:03.200Z,80.64
2023-04-22T07:04:03.138Z,80.04
2023-04-22T07:05:03.203Z,80.24
2023-04-22T07:06:03.024Z,80.00
2023-04-22T07:07:03.556Z,79.59
2023-04-22T07:08:03.942Z,78.95
2023-04-22T07:09:03.596Z,78.44
2023-04-22T07:10:03.401Z,78.55
2023-04-22T07:11:03.932Z,77.33
2023-04-22T07:12:03.244Z,77.23
2023-04-22T07:13:02.948Z,78.34
2023-04-22T07:14:03.556Z,76.89
2023-04-22T07:15:03.028Z,77.60
2023-04-22T07:16:03.357Z,77.80
2023-04-22T07:17:03.305Z,77.76
2023-04-22T07:18:03.141Z,77.97
2023-04-22T07:19:03.232Z,76.92
2023-04-22T07:20:03.182Z,77.62
2023-04-22T07:21:03.182Z,76.72
2023-04-22T07:22:03.704Z,75.51
2023-04-22T07:23:03.604Z,76.42
2023-04-22T07:24:03.578Z,76.28
2023-04-22T07:25:03.638Z,76.98
2023-04-22T07:26:03.632Z,76.54
2023-04-22T07:27:03.066Z,76.64
2023-04-22T07:28:03.037Z,75.54
2023-04-22T07:29:03.051Z,75.80
2023-04-22T07:30:03.223Z,74.39
2023-04-22T07:31:02.613Z,73.99
2023-04-22T07:32:03.024Z,74.08
2023-04-22T07:33:03.134Z,71.73
2023-04-22T07:34:03.048Z,72.78
2023-04-22T07:35:03.119Z,73.28
2023-04-22T07:36:03.037Z,73.85
2023-04-22T07:37:03.700Z,72.85
2023-04-22T07:38:03.318Z,73.25
2023-04-22T07:39:03.395Z,72.85
2023-04-22T07:40:03.650Z,71.03
2023-04-22T07:41:03.593Z,71.84
2023-04-22T07:42:03.306Z,71.53
2023-04-22T07:43:03.351Z,72.74
2023-04-22T07:44:03.198Z,72.04
2023-04-22T07:45:03.059Z,72.44
2023-04-22T07:46:03.142Z,72.00
2023-04-22T07:47:03.439Z,71.30
2023-04-22T07:48:03.517Z,71.40
2023-04-22T07:49:03.344Z,71.30
2023-04-22T07:50:03.357Z,70.76
2023-04-22T07:51:03.167Z,70.36
2023-04-22T07:52:03.005Z,70.76
2023-04-22T07:53:02.788Z,69.85
2023-04-22T07:54:03.057Z,69.79
2023-04-22T07:55:02.878Z,70.56
2023-04-22T07:56:02.943Z,69.35
2023-04-22T07:57:03.055Z,68.95
2023-04-22T07:58:02.833Z,70.16
2023-04-22T07:59:02.929Z,68.95
2023-04-22T08:00:02.871Z,67.94
2023-04-22T08:01:02.873Z,67.24
2023-04-22T08:02:02.391Z,68.55
2023-04-22T08:03:02.417Z,67.54
2023-04-22T08:04:02.431Z,68.15
2023-04-22T08:05:02.054Z,68.65
2023-04-22T08:06:02.244Z,68.15
2023-04-22T08:07:09.259Z,68.62
2023-04-22T08:08:02.186Z,67.31
2023-04-22T08:09:02.237Z,67.91
2023-04-22T08:10:02.284Z,67.61
2023-04-22T08:11:02.341Z,67.07
2023-04-22T08:12:02.962Z,66.67
2023-04-22T08:13:02.797Z,67.07
2023-04-22T08:14:02.716Z,66.97
2023-04-22T08:15:02.615Z,67.14
2023-04-22T08:16:02.667Z,66.74
2023-04-22T08:17:03.030Z,66.74
2023-04-22T08:18:03.154Z,66.00
2023-04-22T08:19:03.056Z,66.31
2023-04-22T08:20:02.635Z,65.00
2023-04-22T08:21:02.671Z,63.90
2023-04-22T08:22:01.805Z,64.80
2023-04-22T08:23:02.480Z,65.80
2023-04-22T08:24:02.299Z,64.20
2023-04-22T08:25:02.159Z,65.10
2023-04-22T08:26:02.265Z,63.87
2023-04-22T08:27:02.760Z,64.97
2023-04-22T08:28:02.404Z,65.37
2023-04-22T08:29:02.469Z,64.34
2023-04-22T08:30:02.456Z,63.23
2023-04-22T08:31:02.490Z,62.53
2023-04-22T08:32:02.578Z,62.43
2023-04-22T08:33:02.795Z,63.53
2023-04-22T08:34:02.760Z,63.73
2023-04-22T08:35:05.668Z,62.43
2023-04-22T08:36:02.863Z,60.89
2023-04-22T08:37:02.083Z,60.60
2023-04-22T08:38:02.486Z,59.22
2023-04-22T08:39:02.091Z,61.02
2023-04-22T08:40:02.070Z,62.10
2023-04-22T08:41:02.203Z,62.00
2023-04-22T08:42:02.188Z,61.50
2023-04-22T08:43:02.333Z,59.59
2023-04-22T08:44:02.782Z,58.89
2023-04-22T08:45:02.575Z,60.19
2023-04-22T08:46:02.794Z,60.80
2023-04-22T08:47:03.036Z,60.16
2023-04-22T08:48:02.886Z,58.46
2023-04-22T08:49:02.734Z,58.06
2023-04-22T08:50:02.704Z,58.96
2023-04-22T08:51:02.899Z,58.46
2023-04-22T08:52:02.156Z,57.46
2023-04-22T08:53:02.030Z,57.35
2023-04-22T08:54:02.736Z,58.56
2023-04-22T08:55:02.485Z,57.56
2023-04-22T08:56:02.511Z,56.15
2023-04-22T08:57:02.563Z,56.05
2023-04-22T08:58:02.942Z,57.86
2023-04-22T08:59:02.992Z,57.26
2023-04-22T09:00:02.799Z,56.85
2023-04-22T09:01:02.980Z,56.76
2023-04-22T09:02:02.210Z,57.18
2023-04-22T09:03:02.265Z,55.78
2023-04-22T09:04:02.192Z,57.59
2023-04-22T09:05:02.023Z,57.79
2023-04-22T09:06:02.081Z,57.39
2023-04-22T09:07:01.897Z,56.78
2023-04-22T09:08:01.880Z,56.38
2023-04-22T09:09:01.955Z,56.68
2023-04-22T09:10:01.879Z,57.48
2023-04-22T09:11:02.254Z,56.85
2023-04-22T09:12:02.068Z,57.76
2023-04-22T09:13:01.978Z,58.46
2023-04-22T09:14:02.065Z,58.03
2023-04-22T09:15:02.131Z,58.33
2023-04-22T09:16:02.260Z,57.33
2023-04-22T09:17:02.259Z,58.00
2023-04-22T09:18:02.303Z,56.60
2023-04-22T09:19:02.423Z,55.50
2023-04-22T09:20:02.310Z,55.80
2023-04-22T09:21:02.281Z,55.40
2023-04-22T09:22:02.278Z,55.52
2023-04-22T09:23:02.683Z,56.33
2023-04-22T09:24:02.483Z,56.00
2023-04-22T09:25:02.436Z,56.30
2023-04-22T09:26:02.540Z,57.00
2023-04-22T09:27:02.645Z,58.18
2023-04-22T09:28:02.766Z,54.87
2023-04-22T09:29:02.597Z,56.57
2023-04-22T09:30:02.645Z,56.45
2023-04-22T09:31:02.720Z,55.15
2023-04-22T09:32:02.178Z,56.05
2023-04-22T09:33:02.550Z,54.94
2023-04-22T09:34:02.367Z,54.74
2023-04-22T09:35:02.476Z,56.42
2023-04-22T09:36:02.358Z,56.22
2023-04-22T09:37:02.326Z,54.32
2023-04-22T09:38:02.442Z,54.82
2023-04-22T09:39:02.508Z,54.02
2023-04-22T09:40:02.505Z,53.94
2023-04-22T09:41:02.136Z,54.44
2023-04-22T09:42:02.775Z,55.35
2023-04-22T09:43:02.857Z,55.44
2023-04-22T09:44:03.003Z,55.44
2023-04-22T09:45:02.597Z,55.52
2023-04-22T09:46:02.726Z,55.42
2023-04-22T09:47:02.356Z,55.02
2023-04-22T09:48:02.448Z,54.92
2023-04-22T09:49:02.410Z,53.82
2023-04-22T09:50:02.453Z,54.92
2023-04-22T09:51:02.387Z,55.22
2023-04-22T09:52:02.969Z,55.52
2023-04-22T09:53:02.906Z,55.40
2023-04-22T09:54:03.030Z,55.69
2023-04-22T09:55:03.181Z,54.19
2023-04-22T09:56:03.192Z,54.62
2023-04-22T09:57:02.298Z,54.72
2023-04-22T09:58:02.245Z,54.42
2023-04-22T09:59:02.309Z,55.02
2023-04-22T10:00:02.408Z,55.12
2023-04-22T10:01:02.293Z,55.22
2023-04-22T10:02:02.629Z,54.72
2023-04-22T10:03:02.775Z,55.72
2023-04-22T10:04:02.535Z,54.32
2023-04-22T10:05:02.714Z,54.32
2023-04-22T10:06:02.801Z,55.29
2023-04-22T10:07:02.964Z,55.40
2023-04-22T10:08:03.033Z,55.49
2023-04-22T10:09:02.896Z,54.77
2023-04-22T10:10:03.023Z,54.17
2023-04-22T10:11:02.981Z,52.74
2023-04-22T10:12:02.970Z,52.44
2023-04-22T10:13:03.056Z,52.94
2023-04-22T10:14:03.236Z,53.74
2023-04-22T10:15:03.112Z,53.31
2023-04-22T10:16:03.198Z,52.52
2023-04-22T10:17:03.094Z,52.89
2023-04-22T10:18:03.124Z,52.09
2023-04-22T10:19:02.774Z,51.20
2023-04-22T10:20:02.893Z,51.32
2023-04-22T10:21:02.818Z,51.52
2023-04-22T10:22:02.730Z,52.12
2023-04-22T10:23:02.742Z,51.82
2023-04-22T10:24:02.454Z,51.52
2023-04-22T10:25:02.849Z,51.92
2023-04-22T10:26:02.705Z,52.62
2023-04-22T10:27:02.939Z,51.45
2023-04-22T10:28:02.921Z,51.84
2023-04-22T10:29:02.994Z,52.44
2023-04-22T10:30:03.115Z,52.94
2023-04-22T10:31:02.997Z,51.94
2023-04-22T10:32:03.173Z,52.64
2023-04-22T10:33:03.361Z,53.14
2023-04-22T10:34:02.770Z,53.34
2023-04-22T10:35:03.138Z,53.54
2023-04-22T10:36:03.184Z,53.54
2023-04-22T10:37:03.562Z,53.04
2023-04-22T10:38:03.659Z,53.07
2023-04-22T10:39:03.800Z,53.27
2023-04-22T10:40:03.647Z,54.67
2023-04-22T10:41:03.949Z,53.07
2023-04-22T10:42:03.580Z,53.17
2023-04-22T10:43:03.710Z,53.87
2023-04-22T10:44:03.496Z,53.64
2023-04-22T10:45:03.835Z,53.84
2023-04-22T10:46:03.866Z,54.34
2023-04-22T10:47:02.935Z,53.22
2023-04-22T10:48:02.574Z,52.62
2023-04-22T10:49:02.593Z,52.84
2023-04-22T10:50:02.669Z,52.55
2023-04-22T10:51:02.803Z,52.34
2023-04-22T10:52:03.206Z,53.74
2023-04-22T10:53:03.136Z,53.72
2023-04-22T10:54:02.897Z,53.52
2023-04-22T10:55:03.014Z,53.39
2023-04-22T10:56:03.138Z,54.39
2023-04-22T10:57:02.946Z,52.29
2023-04-22T10:58:02.725Z,52.69
2023-04-22T10:59:02.721Z,52.69
2023-04-22T11:00:02.973Z,52.62
2023-04-22T11:01:02.893Z,53.59
2023-04-22T11:02:02.681Z,52.99
2023-04-22T11:03:02.594Z,52.59
2023-04-22T11:04:02.554Z,53.69
2023-04-22T11:05:02.462Z,53.99
2023-04-22T11:06:02.409Z,54.19
2023-04-22T11:07:03.126Z,52.99
2023-04-22T11:08:02.967Z,53.29
2023-04-22T11:09:02.913Z,53.39
2023-04-22T11:10:02.662Z,52.89
2023-04-22T11:11:02.620Z,53.09
2023-04-22T11:12:03.139Z,53.12
2023-04-22T11:13:02.985Z,53.42
2023-04-22T11:14:02.791Z,54.32
2023-04-22T11:15:03.183Z,54.49
2023-04-22T11:16:02.860Z,53.49
2023-04-22T11:17:03.349Z,53.19
2023-04-22T11:18:03.244Z,53.09
2023-04-22T11:19:03.030Z,53.42
2023-04-22T11:20:03.251Z,53.92
2023-04-22T11:21:03.450Z,54.41
2023-04-22T11:22:02.877Z,52.42
2023-04-22T11:23:02.897Z,51.82
2023-04-22T11:24:02.625Z,52.64
2023-04-22T11:25:02.531Z,53.34
2023-04-22T11:26:02.717Z,53.54
2023-04-22T11:27:03.370Z,53.52
2023-04-22T11:28:03.261Z,53.81
2023-04-22T11:29:02.772Z,52.92
2023-04-22T11:30:02.953Z,52.22
2023-04-22T11:31:03.448Z,53.92
2023-04-22T11:32:03.475Z,53.61
2023-04-22T11:33:03.602Z,53.81
2023-04-22T11:34:03.321Z,55.32
2023-04-22T11:35:03.418Z,53.89
2023-04-22T11:36:03.136Z,53.49
2023-04-22T11:37:02.406Z,53.86
2023-04-22T11:38:02.895Z,52.57
2023-04-22T11:39:02.840Z,53.17
2023-04-22T11:40:27.371Z,51.87
2023-04-22T11:41:02.455Z,51.97
2023-04-22T11:42:02.530Z,52.37
2023-04-22T11:43:02.724Z,52.37
2023-04-22T11:44:03.114Z,53.17
2023-04-22T11:45:03.035Z,52.37
2023-04-22T11:46:03.278Z,53.17
2023-04-22T11:47:02.655Z,52.57
2023-04-22T11:48:02.846Z,52.37
2023-04-22T11:49:02.974Z,52.47
2023-04-22T11:50:03.201Z,52.76
2023-04-22T11:51:02.865Z,52.07
2023-04-22T11:52:02.951Z,52.37
2023-04-22T11:53:02.112Z,52.17
2023-04-22T11:54:02.143Z,52.87
2023-04-22T11:55:02.188Z,52.47
2023-04-22T11:56:02.491Z,52.67
2023-04-22T11:57:02.082Z,53.36
2023-04-22T11:58:02.269Z,53.96
2023-04-22T11:59:02.446Z,53.66
2023-04-22T12:00:02.362Z,53.86
2023-04-22T12:01:02.624Z,52.76
2023-04-22T12:02:02.722Z,54.06
2023-04-22T12:03:03.128Z,53.24
2023-04-22T12:04:03.618Z,53.34
2023-04-22T12:05:03.544Z,52.55
2023-04-22T12:06:02.859Z,52.94
2023-04-22T12:07:03.229Z,52.64
2023-04-22T12:08:02.823Z,51.84
2023-04-22T12:09:02.936Z,51.95
2023-04-22T12:10:03.033Z,52.25
2023-04-22T12:11:02.450Z,52.25
2023-04-22T12:12:02.571Z,52.64
2023-04-22T12:13:03.413Z,52.84
2023-04-22T12:14:03.450Z,52.94
2023-04-22T12:15:03.472Z,53.44
2023-04-22T12:16:03.425Z,52.74
2023-04-22T12:17:03.419Z,53.74
2023-04-22T12:18:03.624Z,52.55
2023-04-22T12:19:03.682Z,52.34
2023-04-22T12:20:03.403Z,52.47
2023-04-22T12:21:03.588Z,53.17
2023-04-22T12:22:03.318Z,53.86
2023-04-22T12:23:02.816Z,53.77
2023-04-22T12:24:02.805Z,54.16
2023-04-22T12:25:02.787Z,54.66
2023-04-22T12:26:03.040Z,53.94
2023-04-22T12:27:03.282Z,53.44
2023-04-22T12:28:03.546Z,53.44
2023-04-22T12:29:03.540Z,53.74
2023-04-22T12:30:03.297Z,54.27
2023-04-22T12:31:03.150Z,53.06
2023-04-22T12:32:03.593Z,52.87
2023-04-22T12:33:03.252Z,54.46
2023-04-22T12:34:03.036Z,53.96
2023-04-22T12:35:03.234Z,53.47
2023-04-22T12:36:03.225Z,52.79
2023-04-22T12:37:03.311Z,53.39
2023-04-22T12:38:03.222Z,53.79
2023-04-22T12:39:03.310Z,53.17
2023-04-22T12:40:03.150Z,53.36
2023-04-22T12:41:02.790Z,53.17
2023-04-22T12:42:03.215Z,53.27
2023-04-22T12:43:03.181Z,53.47
2023-04-22T12:44:03.202Z,54.36
2023-04-22T12:45:03.390Z,53.56
2023-04-22T12:46:03.200Z,53.77
2023-04-22T12:47:02.888Z,54.27
2023-04-22T12:48:03.540Z,54.94
2023-04-22T12:49:03.718Z,54.94
2023-04-22T12:50:03.552Z,54.04
2023-04-22T12:51:03.730Z,54.21
2023-04-22T12:52:03.548Z,53.61